sensor_id;sensor_type;location;lat;lon;timestamp;pressure;altitude;pressure_sealevel;temperature;humidity
69630;BME280;56857;52.212;5.496;2022-08-19T00:00:53;101413.03;;;18.33;90.81
69630;BME280;56857;52.212;5.496;2022-08-19T00:03:19;101407.03;;;18.30;90.97
69630;BME280;56857;52.212;5.496;2022-08-19T00:05:44;101416.31;;;18.28;90.91
69630;BME280;56857;52.212;5.496;2022-08-19T00:08:09;101410.94;;;18.28;90.95
69630;BME280;56857;52.212;5.496;2022-08-19T00:10:35;101421.28;;;18.24;90.86
69630;BME280;56857;52.212;5.496;2022-08-19T00:13:00;101428.72;;;18.22;91.04
69630;BME280;56857;52.212;5.496;2022-08-19T00:15:25;101434.09;;;18.22;91.28
69630;BME280;56857;52.212;5.496;2022-08-19T00:17:51;101430.38;;;18.23;91.34
69630;BME280;56857;52.212;5.496;2022-08-19T00:20:18;101420.88;;;18.21;91.29
69630;BME280;56857;52.212;5.496;2022-08-19T00:22:45;101421.91;;;18.20;91.20
69630;BME280;56857;52.212;5.496;2022-08-19T00:25:11;101426.22;;;18.21;91.26
69630;BME280;56857;52.212;5.496;2022-08-19T00:27:36;101421.91;;;18.20;91.23
69630;BME280;56857;52.212;5.496;2022-08-19T00:30:04;101421.09;;;18.19;91.17
69630;BME280;56857;52.212;5.496;2022-08-19T00:32:29;101421.28;;;18.18;91.22
69630;BME280;56857;52.212;5.496;2022-08-19T00:34:55;101419.63;;;18.17;91.32
69630;BME280;56857;52.212;5.496;2022-08-19T00:37:22;101422.50;;;18.15;91.20
69630;BME280;56857;52.212;5.496;2022-08-19T00:39:48;101417.13;;;18.15;91.02
69630;BME280;56857;52.212;5.496;2022-08-19T00:42:14;101419.00;;;18.15;91.51
69630;BME280;56857;52.212;5.496;2022-08-19T00:44:40;101415.72;;;18.13;91.09
69630;BME280;56857;52.212;5.496;2022-08-19T00:47:05;101418.59;;;18.11;90.95
69630;BME280;56857;52.212;5.496;2022-08-19T00:49:35;101405.59;;;18.08;91.04
69630;BME280;56857;52.212;5.496;2022-08-19T00:52:09;101413.00;;;18.06;91.14
69630;BME280;56857;52.212;5.496;2022-08-19T00:54:37;101410.53;;;18.04;91.46
69630;BME280;56857;52.212;5.496;2022-08-19T00:57:06;101406.63;;;18.00;91.21
69630;BME280;56857;52.212;5.496;2022-08-19T00:59:35;101407.03;;;17.97;91.07
69630;BME280;56857;52.212;5.496;2022-08-19T01:02:02;101420.84;;;17.94;90.96
69630;BME280;56857;52.212;5.496;2022-08-19T01:04:27;101417.75;;;17.91;91.01
69630;BME280;56857;52.212;5.496;2022-08-19T01:06:52;101416.28;;;17.88;90.91
69630;BME280;56857;52.212;5.496;2022-08-19T01:09:18;101415.47;;;17.88;91.37
69630;BME280;56857;52.212;5.496;2022-08-19T01:11:44;101410.94;;;17.88;91.43
69630;BME280;56857;52.212;5.496;2022-08-19T01:14:10;101408.44;;;17.87;91.35
69630;BME280;56857;52.212;5.496;2022-08-19T01:16:37;101407.63;;;17.86;91.11
69630;BME280;56857;52.212;5.496;2022-08-19T01:19:12;101412.16;;;17.86;90.93
69630;BME280;56857;52.212;5.496;2022-08-19T01:21:46;101402.47;;;17.85;91.08
69630;BME280;56857;52.212;5.496;2022-08-19T01:24:15;101415.88;;;17.85;90.90
69630;BME280;56857;52.212;5.496;2022-08-19T01:26:42;101409.25;;;17.80;90.85
69630;BME280;56857;52.212;5.496;2022-08-19T01:29:08;101412.97;;;17.79;91.17
69630;BME280;56857;52.212;5.496;2022-08-19T01:31:34;101410.47;;;17.78;91.00
69630;BME280;56857;52.212;5.496;2022-08-19T01:34:01;101412.34;;;17.77;91.14
69630;BME280;56857;52.212;5.496;2022-08-19T01:36:39;101413.34;;;17.76;91.12
69630;BME280;56857;52.212;5.496;2022-08-19T01:39:07;101412.53;;;17.76;90.98
69630;BME280;56857;52.212;5.496;2022-08-19T01:41:34;101415.38;;;17.74;90.81
69630;BME280;56857;52.212;5.496;2022-08-19T01:43:59;101417.25;;;17.74;90.92
69630;BME280;56857;52.212;5.496;2022-08-19T01:46:25;101422.63;;;17.74;91.04
69630;BME280;56857;52.212;5.496;2022-08-19T01:48:50;101415.59;;;17.73;90.94
69630;BME280;56857;52.212;5.496;2022-08-19T01:51:16;101416.00;;;17.70;90.86
69630;BME280;56857;52.212;5.496;2022-08-19T01:53:41;101413.53;;;17.68;90.77
69630;BME280;56857;52.212;5.496;2022-08-19T01:56:07;101412.69;;;17.68;90.68
69630;BME280;56857;52.212;5.496;2022-08-19T01:58:38;101415.59;;;17.66;90.87
69630;BME280;56857;52.212;5.496;2022-08-19T02:01:06;101420.13;;;17.66;90.54
69630;BME280;56857;52.212;5.496;2022-08-19T02:03:32;101418.69;;;17.63;90.92
69630;BME280;56857;52.212;5.496;2022-08-19T02:05:59;101427.13;;;17.60;90.44
69630;BME280;56857;52.212;5.496;2022-08-19T02:08:26;101423.38;;;17.54;90.58
69630;BME280;56857;52.212;5.496;2022-08-19T02:10:51;101416.78;;;17.50;90.56
69630;BME280;56857;52.212;5.496;2022-08-19T02:13:17;101411.59;;;17.49;90.86
69630;BME280;56857;52.212;5.496;2022-08-19T02:15:42;101424.41;;;17.47;90.94
69630;BME280;56857;52.212;5.496;2022-08-19T02:18:08;101416.16;;;17.48;91.10
69630;BME280;56857;52.212;5.496;2022-08-19T02:20:33;101427.09;;;17.47;90.83
69630;BME280;56857;52.212;5.496;2022-08-19T02:22:59;101417.19;;;17.47;90.79
69630;BME280;56857;52.212;5.496;2022-08-19T02:25:24;101411.00;;;17.47;90.91
69630;BME280;56857;52.212;5.496;2022-08-19T02:27:50;101404.59;;;17.41;90.59
69630;BME280;56857;52.212;5.496;2022-08-19T02:30:17;101413.03;;;17.38;90.51
69630;BME280;56857;52.212;5.496;2022-08-19T02:32:43;101415.88;;;17.36;90.88
69630;BME280;56857;52.212;5.496;2022-08-19T02:35:08;101421.25;;;17.36;90.82
69630;BME280;56857;52.212;5.496;2022-08-19T02:37:34;101429.50;;;17.35;91.26
69630;BME280;56857;52.212;5.496;2022-08-19T02:39:59;101427.84;;;17.34;91.08
69630;BME280;56857;52.212;5.496;2022-08-19T02:42:25;101435.91;;;17.34;91.26
69630;BME280;56857;52.212;5.496;2022-08-19T02:44:50;101430.72;;;17.32;91.32
69630;BME280;56857;52.212;5.496;2022-08-19T02:47:15;101437.94;;;17.32;91.43
69630;BME280;56857;52.212;5.496;2022-08-19T02:49:41;101438.13;;;17.30;91.23
69630;BME280;56857;52.212;5.496;2022-08-19T02:52:07;101428.44;;;17.29;91.14
69630;BME280;56857;52.212;5.496;2022-08-19T02:54:32;101432.97;;;17.29;91.00
69630;BME280;56857;52.212;5.496;2022-08-19T02:56:57;101424.94;;;17.29;91.19
69630;BME280;56857;52.212;5.496;2022-08-19T02:59:22;101430.47;;;17.27;91.38
69630;BME280;56857;52.212;5.496;2022-08-19T03:01:48;101435.22;;;17.25;91.45
69630;BME280;56857;52.212;5.496;2022-08-19T03:04:14;101432.75;;;17.24;91.39
69630;BME280;56857;52.212;5.496;2022-08-19T03:06:43;101441.41;;;17.26;91.42
69630;BME280;56857;52.212;5.496;2022-08-19T03:09:10;101442.22;;;17.26;91.06
69630;BME280;56857;52.212;5.496;2022-08-19T03:11:36;101435.22;;;17.25;91.06
69630;BME280;56857;52.212;5.496;2022-08-19T03:14:03;101439.78;;;17.25;91.15
69630;BME280;56857;52.212;5.496;2022-08-19T03:16:31;101439.94;;;17.23;91.21
69630;BME280;56857;52.212;5.496;2022-08-19T03:18:58;101433.13;;;17.21;91.41
69630;BME280;56857;52.212;5.496;2022-08-19T03:21:25;101427.34;;;17.17;91.40
69630;BME280;56857;52.212;5.496;2022-08-19T03:23:56;101426.53;;;17.17;91.43
69630;BME280;56857;52.212;5.496;2022-08-19T03:26:21;101430.25;;;17.16;91.38
69630;BME280;56857;52.212;5.496;2022-08-19T03:28:46;101428.56;;;17.14;92.12
69630;BME280;56857;52.212;5.496;2022-08-19T03:31:13;101426.50;;;17.10;92.73
69630;BME280;56857;52.212;5.496;2022-08-19T03:33:39;101419.03;;;17.05;92.23
69630;BME280;56857;52.212;5.496;2022-08-19T03:36:14;101417.59;;;17.03;92.35
69630;BME280;56857;52.212;5.496;2022-08-19T03:38:43;101412.03;;;17.04;92.16
69630;BME280;56857;52.212;5.496;2022-08-19T03:41:12;101411.22;;;17.04;92.19
69630;BME280;56857;52.212;5.496;2022-08-19T03:43:38;101416.56;;;17.04;92.46
69630;BME280;56857;52.212;5.496;2022-08-19T03:46:08;101408.94;;;17.01;93.07
69630;BME280;56857;52.212;5.496;2022-08-19T03:48:34;101421.25;;;16.95;93.42
69630;BME280;56857;52.212;5.496;2022-08-19T03:51:00;101429.69;;;16.92;93.23
69630;BME280;56857;52.212;5.496;2022-08-19T03:53:28;101429.91;;;16.90;93.55
69630;BME280;56857;52.212;5.496;2022-08-19T03:55:54;101423.72;;;16.90;93.34
69630;BME280;56857;52.212;5.496;2022-08-19T03:58:21;101414.00;;;16.89;93.30
69630;BME280;56857;52.212;5.496;2022-08-19T04:00:47;101414.00;;;16.89;92.85
69630;BME280;56857;52.212;5.496;2022-08-19T04:03:12;101417.50;;;16.89;92.72
69630;BME280;56857;52.212;5.496;2022-08-19T04:05:37;101415.47;;;16.91;92.79
69630;BME280;56857;52.212;5.496;2022-08-19T04:08:03;101423.50;;;16.91;93.31
69630;BME280;56857;52.212;5.496;2022-08-19T04:10:29;101412.38;;;16.88;93.38
69630;BME280;56857;52.212;5.496;2022-08-19T04:12:54;101418.75;;;16.87;92.73
69630;BME280;56857;52.212;5.496;2022-08-19T04:15:19;101409.25;;;16.84;92.66
69630;BME280;56857;52.212;5.496;2022-08-19T04:17:45;101405.13;;;16.82;92.53
69630;BME280;56857;52.212;5.496;2022-08-19T04:20:10;101393.75;;;16.80;92.38
69630;BME280;56857;52.212;5.496;2022-08-19T04:22:35;101395.84;;;16.78;92.20
69630;BME280;56857;52.212;5.496;2022-08-19T04:25:01;101393.34;;;16.76;92.50
69630;BME280;56857;52.212;5.496;2022-08-19T04:27:26;101394.38;;;16.75;92.39
69630;BME280;56857;52.212;5.496;2022-08-19T04:29:51;101385.66;;;16.73;92.30
69630;BME280;56857;52.212;5.496;2022-08-19T04:32:18;101395.75;;;16.71;92.26
69630;BME280;56857;52.212;5.496;2022-08-19T04:34:43;101394.91;;;16.71;92.28
69630;BME280;56857;52.212;5.496;2022-08-19T04:37:08;101394.09;;;16.70;92.80
69630;BME280;56857;52.212;5.496;2022-08-19T04:39:34;101393.25;;;16.69;93.31
69630;BME280;56857;52.212;5.496;2022-08-19T04:41:59;101397.97;;;16.67;93.59
69630;BME280;56857;52.212;5.496;2022-08-19T04:44:25;101389.50;;;16.64;93.51
69630;BME280;56857;52.212;5.496;2022-08-19T04:46:51;101390.75;;;16.61;94.53
69630;BME280;56857;52.212;5.496;2022-08-19T04:49:19;101392.97;;;16.58;95.01
69630;BME280;56857;52.212;5.496;2022-08-19T04:51:46;101385.53;;;16.53;95.10
69630;BME280;56857;52.212;5.496;2022-08-19T04:54:12;101391.06;;;16.52;95.70
69630;BME280;56857;52.212;5.496;2022-08-19T04:56:38;101396.81;;;16.49;96.34
69630;BME280;56857;52.212;5.496;2022-08-19T04:59:04;101398.22;;;16.44;96.49
69630;BME280;56857;52.212;5.496;2022-08-19T05:01:31;101398.44;;;16.43;96.90
69630;BME280;56857;52.212;5.496;2022-08-19T05:03:57;101401.31;;;16.41;97.20
69630;BME280;56857;52.212;5.496;2022-08-19T05:06:23;101406.22;;;16.38;97.44
69630;BME280;56857;52.212;5.496;2022-08-19T05:08:49;101402.91;;;16.36;97.38
69630;BME280;56857;52.212;5.496;2022-08-19T05:11:18;101410.31;;;16.34;97.69
69630;BME280;56857;52.212;5.496;2022-08-19T05:13:44;101410.31;;;16.34;97.91
69630;BME280;56857;52.212;5.496;2022-08-19T05:16:12;101417.50;;;16.33;97.79
69630;BME280;56857;52.212;5.496;2022-08-19T05:18:38;101411.31;;;16.33;98.16
69630;BME280;56857;52.212;5.496;2022-08-19T05:21:09;101418.72;;;16.31;97.51
69630;BME280;56857;52.212;5.496;2022-08-19T05:23:35;101412.97;;;16.34;97.15
69630;BME280;56857;52.212;5.496;2022-08-19T05:26:00;101415.28;;;16.37;96.78
69630;BME280;56857;52.212;5.496;2022-08-19T05:28:26;101413.59;;;16.36;97.20
69630;BME280;56857;52.212;5.496;2022-08-19T05:30:51;101410.31;;;16.34;97.55
69630;BME280;56857;52.212;5.496;2022-08-19T05:33:17;101413.38;;;16.31;97.37
69630;BME280;56857;52.212;5.496;2022-08-19T05:35:43;101414.38;;;16.30;98.03
69630;BME280;56857;52.212;5.496;2022-08-19T05:38:09;101421.13;;;16.26;98.46
69630;BME280;56857;52.212;5.496;2022-08-19T05:40:35;101425.66;;;16.25;98.39
69630;BME280;56857;52.212;5.496;2022-08-19T05:43:00;101420.31;;;16.25;98.91
69630;BME280;56857;52.212;5.496;2022-08-19T05:45:26;101418.47;;;16.26;99.06
69630;BME280;56857;52.212;5.496;2022-08-19T05:47:51;101431.00;;;16.25;99.35
69630;BME280;56857;52.212;5.496;2022-08-19T05:50:17;101427.50;;;16.25;99.47
69630;BME280;56857;52.212;5.496;2022-08-19T05:52:42;101434.50;;;16.26;99.78
69630;BME280;56857;52.212;5.496;2022-08-19T05:55:07;101429.16;;;16.26;100.00
69630;BME280;56857;52.212;5.496;2022-08-19T05:57:32;101418.47;;;16.26;100.00
69630;BME280;56857;52.212;5.496;2022-08-19T05:59:58;101416.81;;;16.25;100.00
69630;BME280;56857;52.212;5.496;2022-08-19T06:02:24;101413.94;;;16.26;100.00
69630;BME280;56857;52.212;5.496;2022-08-19T06:04:49;101411.91;;;16.28;100.00
69630;BME280;56857;52.212;5.496;2022-08-19T06:07:14;101417.69;;;16.32;100.00
69630;BME280;56857;52.212;5.496;2022-08-19T06:09:40;101421.84;;;16.34;100.00
69630;BME280;56857;52.212;5.496;2022-08-19T06:12:06;101419.41;;;16.39;99.87
69630;BME280;56857;52.212;5.496;2022-08-19T06:14:33;101432.41;;;16.42;100.00
69630;BME280;56857;52.212;5.496;2022-08-19T06:16:59;101427.50;;;16.46;100.00
69630;BME280;56857;52.212;5.496;2022-08-19T06:19:25;101431.03;;;16.53;100.00
69630;BME280;56857;52.212;5.496;2022-08-19T06:21:51;101430.25;;;16.59;100.00
69630;BME280;56857;52.212;5.496;2022-08-19T06:24:20;101429.09;;;16.68;100.00
69630;BME280;56857;52.212;5.496;2022-08-19T06:26:48;101426.63;;;16.74;100.00
69630;BME280;56857;52.212;5.496;2022-08-19T06:29:15;101428.78;;;16.78;100.00
69630;BME280;56857;52.212;5.496;2022-08-19T06:31:45;101423.66;;;16.83;100.00
69630;BME280;56857;52.212;5.496;2022-08-19T06:34:11;101423.91;;;16.88;100.00
69630;BME280;56857;52.212;5.496;2022-08-19T06:36:42;101421.66;;;16.92;100.00
69630;BME280;56857;52.212;5.496;2022-08-19T06:39:10;101425.59;;;16.96;100.00
69630;BME280;56857;52.212;5.496;2022-08-19T06:41:39;101419.44;;;17.02;100.00
69630;BME280;56857;52.212;5.496;2022-08-19T06:44:06;101426.06;;;17.06;100.00
69630;BME280;56857;52.212;5.496;2022-08-19T06:46:32;101430.00;;;17.10;100.00
69630;BME280;56857;52.212;5.496;2022-08-19T06:48:58;101432.09;;;17.15;100.00
69630;BME280;56857;52.212;5.496;2022-08-19T06:51:24;101428.81;;;17.20;100.00
69630;BME280;56857;52.212;5.496;2022-08-19T06:53:52;101427.19;;;17.25;100.00
69630;BME280;56857;52.212;5.496;2022-08-19T06:56:21;101426.41;;;17.31;100.00
69630;BME280;56857;52.212;5.496;2022-08-19T06:58:47;101434.47;;;17.38;100.00
69630;BME280;56857;52.212;5.496;2022-08-19T07:01:13;101427.28;;;17.45;100.00
69630;BME280;56857;52.212;5.496;2022-08-19T07:03:38;101433.06;;;17.55;100.00
69630;BME280;56857;52.212;5.496;2022-08-19T07:06:09;101430.47;;;17.69;100.00
69630;BME280;56857;52.212;5.496;2022-08-19T07:08:35;101428.66;;;17.82;100.00
69630;BME280;56857;52.212;5.496;2022-08-19T07:11:05;101433.84;;;17.97;100.00
69630;BME280;56857;52.212;5.496;2022-08-19T07:13:31;101435.31;;;18.13;100.00
69630;BME280;56857;52.212;5.496;2022-08-19T07:15:56;101436.78;;;18.29;100.00
69630;BME280;56857;52.212;5.496;2022-08-19T07:18:21;101434.09;;;18.42;100.00
69630;BME280;56857;52.212;5.496;2022-08-19T07:20:47;101435.31;;;18.53;100.00
69630;BME280;56857;52.212;5.496;2022-08-19T07:23:12;101436.34;;;18.65;100.00
69630;BME280;56857;52.212;5.496;2022-08-19T07:25:38;101441.31;;;18.75;100.00
69630;BME280;56857;52.212;5.496;2022-08-19T07:28:04;101440.06;;;18.84;100.00
69630;BME280;56857;52.212;5.496;2022-08-19T07:30:30;101432.00;;;18.91;100.00
69630;BME280;56857;52.212;5.496;2022-08-19T07:32:55;101440.44;;;18.94;100.00
69630;BME280;56857;52.212;5.496;2022-08-19T07:35:20;101440.66;;;18.99;100.00
69630;BME280;56857;52.212;5.496;2022-08-19T07:37:46;101438.78;;;19.07;100.00
69630;BME280;56857;52.212;5.496;2022-08-19T07:40:12;101441.84;;;19.10;100.00
69630;BME280;56857;52.212;5.496;2022-08-19T07:42:37;101444.13;;;19.13;100.00
69630;BME280;56857;52.212;5.496;2022-08-19T07:45:04;101439.19;;;19.17;100.00
69630;BME280;56857;52.212;5.496;2022-08-19T07:47:29;101436.25;;;19.18;100.00
69630;BME280;56857;52.212;5.496;2022-08-19T07:49:54;101449.50;;;19.20;100.00
69630;BME280;56857;52.212;5.496;2022-08-19T07:52:19;101456.09;;;19.24;100.00
69630;BME280;56857;52.212;5.496;2022-08-19T07:54:45;101451.94;;;19.28;100.00
69630;BME280;56857;52.212;5.496;2022-08-19T07:57:10;101457.69;;;19.38;100.00
69630;BME280;56857;52.212;5.496;2022-08-19T07:59:35;101456.22;;;19.49;100.00
69630;BME280;56857;52.212;5.496;2022-08-19T08:02:01;101452.00;;;19.60;100.00
69630;BME280;56857;52.212;5.496;2022-08-19T08:04:28;101461.53;;;19.69;100.00
69630;BME280;56857;52.212;5.496;2022-08-19T08:06:53;101455.69;;;19.79;100.00
69630;BME280;56857;52.212;5.496;2022-08-19T08:09:40;101460.59;;;19.88;100.00
69630;BME280;56857;52.212;5.496;2022-08-19T08:14:49;101477.50;;;20.02;100.00
69630;BME280;56857;52.212;5.496;2022-08-19T08:17:16;101481.16;;;20.08;100.00
69630;BME280;56857;52.212;5.496;2022-08-19T08:19:42;101483.22;;;20.12;100.00
69630;BME280;56857;52.212;5.496;2022-08-19T08:22:09;101481.75;;;20.17;100.00
69630;BME280;56857;52.212;5.496;2022-08-19T08:24:34;101481.31;;;20.20;99.17
69630;BME280;56857;52.212;5.496;2022-08-19T08:27:00;101480.72;;;20.18;98.78
69630;BME280;56857;52.212;5.496;2022-08-19T08:29:28;101490.63;;;20.17;98.04
69630;BME280;56857;52.212;5.496;2022-08-19T08:31:54;101493.56;;;20.16;98.19
69630;BME280;56857;52.212;5.496;2022-08-19T08:34:20;101497.44;;;20.20;97.75
69630;BME280;56857;52.212;5.496;2022-08-19T08:36:46;101495.38;;;20.22;96.29
69630;BME280;56857;52.212;5.496;2022-08-19T08:39:16;101505.53;;;20.20;96.00
69630;BME280;56857;52.212;5.496;2022-08-19T08:42:34;101507.22;;;20.14;96.46
69630;BME280;56857;52.212;5.496;2022-08-19T08:45:08;101507.44;;;20.12;96.48
69630;BME280;56857;52.212;5.496;2022-08-19T08:47:38;101507.44;;;20.12;96.57
69630;BME280;56857;52.212;5.496;2022-08-19T08:50:13;101510.75;;;20.14;96.71
69630;BME280;56857;52.212;5.496;2022-08-19T08:52:48;101512.78;;;20.19;96.29
69630;BME280;56857;52.212;5.496;2022-08-19T08:55:18;101511.97;;;20.19;95.35
69630;BME280;56857;52.212;5.496;2022-08-19T09:00:29;101520.03;;;20.19;95.03
69630;BME280;56857;52.212;5.496;2022-08-19T09:02:56;101508.38;;;20.31;93.68
69630;BME280;56857;52.212;5.496;2022-08-19T09:05:23;101506.00;;;20.42;93.73
69630;BME280;56857;52.212;5.496;2022-08-19T09:08:00;101506.09;;;20.60;92.95
69630;BME280;56857;52.212;5.496;2022-08-19T09:10:49;101516.56;;;20.75;92.68
69630;BME280;56857;52.212;5.496;2022-08-19T09:16:14;101512.03;;;20.94;90.97
69630;BME280;56857;52.212;5.496;2022-08-19T09:18:46;101506.28;;;20.90;89.92
69630;BME280;56857;52.212;5.496;2022-08-19T09:21:11;101509.56;;;20.92;89.93
69630;BME280;56857;52.212;5.496;2022-08-19T09:23:37;101507.47;;;20.94;90.12
69630;BME280;56857;52.212;5.496;2022-08-19T09:26:07;101514.16;;;21.10;89.54
69630;BME280;56857;52.212;5.496;2022-08-19T09:28:33;101518.88;;;21.33;88.23
69630;BME280;56857;52.212;5.496;2022-08-19T09:30:59;101516.13;;;21.58;87.76
69630;BME280;56857;52.212;5.496;2022-08-19T09:33:28;101512.53;;;21.64;85.30
69630;BME280;56857;52.212;5.496;2022-08-19T09:36:05;101502.84;;;21.75;83.91
69630;BME280;56857;52.212;5.496;2022-08-19T09:38:31;101515.72;;;21.91;82.88
69630;BME280;56857;52.212;5.496;2022-08-19T09:41:04;101519.56;;;22.14;83.56
69630;BME280;56857;52.212;5.496;2022-08-19T09:43:30;101509.88;;;22.25;82.61
69630;BME280;56857;52.212;5.496;2022-08-19T09:45:59;101513.53;;;22.30;83.86
69630;BME280;56857;52.212;5.496;2022-08-19T09:48:25;101505.56;;;22.35;82.37
69630;BME280;56857;52.212;5.496;2022-08-19T09:50:51;101505.00;;;22.45;79.95
69630;BME280;56857;52.212;5.496;2022-08-19T09:53:16;101512.66;;;22.60;81.55
69630;BME280;56857;52.212;5.496;2022-08-19T09:55:43;101513.75;;;22.94;79.82
69630;BME280;56857;52.212;5.496;2022-08-19T09:58:08;101518.91;;;23.31;77.00
69630;BME280;56857;52.212;5.496;2022-08-19T10:00:34;101510.31;;;23.46;78.23
69630;BME280;56857;52.212;5.496;2022-08-19T10:03:01;101513.41;;;23.78;75.19
69630;BME280;56857;52.212;5.496;2022-08-19T10:05:27;101503.03;;;23.87;73.67
69630;BME280;56857;52.212;5.496;2022-08-19T10:07:52;101511.19;;;23.75;73.80
69630;BME280;56857;52.212;5.496;2022-08-19T10:10:18;101514.97;;;23.62;73.06
69630;BME280;56857;52.212;5.496;2022-08-19T10:12:43;101511.47;;;23.50;73.92
69630;BME280;56857;52.212;5.496;2022-08-19T10:15:10;101519.69;;;23.55;73.68
69630;BME280;56857;52.212;5.496;2022-08-19T10:17:35;101510.38;;;23.51;73.16
69630;BME280;56857;52.212;5.496;2022-08-19T10:20:01;101506.75;;;23.45;74.04
69630;BME280;56857;52.212;5.496;2022-08-19T10:22:26;101511.81;;;23.42;73.67
69630;BME280;56857;52.212;5.496;2022-08-19T10:24:52;101518.09;;;23.30;74.60
69630;BME280;56857;52.212;5.496;2022-08-19T10:27:17;101506.84;;;22.98;73.58
69630;BME280;56857;52.212;5.496;2022-08-19T10:29:43;101514.66;;;22.88;74.05
69630;BME280;56857;52.212;5.496;2022-08-19T10:32:08;101516.91;;;22.91;75.11
69630;BME280;56857;52.212;5.496;2022-08-19T10:34:36;101513.50;;;23.07;74.50
69630;BME280;56857;52.212;5.496;2022-08-19T10:37:03;101511.59;;;23.55;73.83
69630;BME280;56857;52.212;5.496;2022-08-19T10:39:30;101503.44;;;23.95;70.12
69630;BME280;56857;52.212;5.496;2022-08-19T10:41:55;101498.03;;;23.95;70.51
69630;BME280;56857;52.212;5.496;2022-08-19T10:44:21;101498.84;;;23.96;70.79
69630;BME280;56857;52.212;5.496;2022-08-19T10:46:46;101498.88;;;24.41;70.97
69630;BME280;56857;52.212;5.496;2022-08-19T10:49:11;101496.41;;;24.73;70.08
69630;BME280;56857;52.212;5.496;2022-08-19T10:51:38;101497.69;;;24.88;68.28
69630;BME280;56857;52.212;5.496;2022-08-19T10:54:04;101500.94;;;25.46;65.54
69630;BME280;56857;52.212;5.496;2022-08-19T10:56:30;101488.16;;;25.90;64.11
69630;BME280;56857;52.212;5.496;2022-08-19T10:58:56;101487.16;;;26.28;64.14
69630;BME280;56857;52.212;5.496;2022-08-19T11:01:22;101483.50;;;26.82;60.77
69630;BME280;56857;52.212;5.496;2022-08-19T11:03:47;101488.91;;;27.19;58.69
69630;BME280;56857;52.212;5.496;2022-08-19T11:06:12;101486.50;;;27.33;58.98
69630;BME280;56857;52.212;5.496;2022-08-19T11:08:38;101482.81;;;27.60;56.26
69630;BME280;56857;52.212;5.496;2022-08-19T11:11:04;101478.75;;;27.72;56.69
69630;BME280;56857;52.212;5.496;2022-08-19T11:13:32;101474.47;;;27.92;55.44
69630;BME280;56857;52.212;5.496;2022-08-19T11:16:09;101482.41;;;28.04;55.75
69630;BME280;56857;52.212;5.496;2022-08-19T11:18:37;101479.09;;;28.12;56.41
69630;BME280;56857;52.212;5.496;2022-08-19T11:21:07;101478.88;;;28.49;54.96
69630;BME280;56857;52.212;5.496;2022-08-19T11:23:33;101472.34;;;28.50;55.56
69630;BME280;56857;52.212;5.496;2022-08-19T11:25:58;101469.31;;;27.90;56.13
69630;BME280;56857;52.212;5.496;2022-08-19T11:28:24;101467.63;;;27.79;57.07
69630;BME280;56857;52.212;5.496;2022-08-19T11:30:49;101469.59;;;28.19;54.22
69630;BME280;56857;52.212;5.496;2022-08-19T11:33:14;101467.69;;;28.46;53.79
69630;BME280;56857;52.212;5.496;2022-08-19T11:35:40;101470.13;;;28.37;53.92
69630;BME280;56857;52.212;5.496;2022-08-19T11:38:05;101469.84;;;28.08;54.82
69630;BME280;56857;52.212;5.496;2022-08-19T11:40:30;101466.88;;;28.35;54.54
69630;BME280;56857;52.212;5.496;2022-08-19T11:42:56;101461.66;;;28.74;54.55
69630;BME280;56857;52.212;5.496;2022-08-19T11:45:23;101463.16;;;29.26;54.32
69630;BME280;56857;52.212;5.496;2022-08-19T11:47:48;101465.47;;;29.53;51.95
69630;BME280;56857;52.212;5.496;2022-08-19T11:50:15;101458.28;;;29.73;51.57
69630;BME280;56857;52.212;5.496;2022-08-19T11:52:41;101464.53;;;29.78;51.33
69630;BME280;56857;52.212;5.496;2022-08-19T11:55:07;101467.72;;;29.91;52.58
69630;BME280;56857;52.212;5.496;2022-08-19T11:57:32;101460.38;;;29.86;52.61
69630;BME280;56857;52.212;5.496;2022-08-19T11:59:57;101467.34;;;30.08;53.20
69630;BME280;56857;52.212;5.496;2022-08-19T12:02:23;101459.13;;;29.68;49.97
69630;BME280;56857;52.212;5.496;2022-08-19T12:04:49;101450.72;;;28.79;52.65
69630;BME280;56857;52.212;5.496;2022-08-19T12:07:15;101459.13;;;28.93;53.43
69630;BME280;56857;52.212;5.496;2022-08-19T12:09:40;101464.34;;;28.84;53.52
69630;BME280;56857;52.212;5.496;2022-08-19T12:12:06;101457.88;;;28.45;53.79
69630;BME280;56857;52.212;5.496;2022-08-19T12:14:32;101464.13;;;28.09;55.40
69630;BME280;56857;52.212;5.496;2022-08-19T12:16:57;101471.75;;;28.02;55.98
69630;BME280;56857;52.212;5.496;2022-08-19T12:19:23;101466.84;;;27.84;55.72
69630;BME280;56857;52.212;5.496;2022-08-19T12:21:49;101462.88;;;27.49;56.22
69630;BME280;56857;52.212;5.496;2022-08-19T12:24:14;101475.28;;;27.14;57.07
69630;BME280;56857;52.212;5.496;2022-08-19T12:26:40;101465.00;;;26.79;58.11
69630;BME280;56857;52.212;5.496;2022-08-19T12:29:06;101466.94;;;26.46;59.36
69630;BME280;56857;52.212;5.496;2022-08-19T12:31:32;101467.78;;;26.20;60.25
69630;BME280;56857;52.212;5.496;2022-08-19T12:33:58;101470.25;;;25.94;61.57
69630;BME280;56857;52.212;5.496;2022-08-19T12:36:23;101472.66;;;25.63;62.26
69630;BME280;56857;52.212;5.496;2022-08-19T12:38:48;101470.19;;;25.40;63.20
69630;BME280;56857;52.212;5.496;2022-08-19T12:41:15;101470.41;;;24.94;65.99
69630;BME280;56857;52.212;5.496;2022-08-19T12:43:41;101475.63;;;24.62;67.65
69630;BME280;56857;52.212;5.496;2022-08-19T12:46:07;101474.47;;;24.41;69.93
69630;BME280;56857;52.212;5.496;2022-08-19T12:48:33;101482.09;;;24.27;72.75
69630;BME280;56857;52.212;5.496;2022-08-19T12:50:59;101485.03;;;24.09;72.67
69630;BME280;56857;52.212;5.496;2022-08-19T12:53:24;101486.41;;;23.83;74.18